Terminal Aerodrome Forecast
Issued by NWS

Home | Current Version | Previous Version | Graphics & Text | Print | Product List | Glossary On
Versions: 1 2 3 4 5 6 7 8 9 10 11 12 13 14 15 16 17 18 19 20 21 22 23 24 25
000
FTUS43 KBIS 210520
TAFJMS
TAF
KJMS 210520Z 2106/2206 VRB03KT P6SM FEW200
     FM211000 VRB03KT 6SM BR FEW040
     FM211100 VRB03KT 3SM BR FEW020
     FM211200 VRB03KT 1 1/2SM BR FEW010
     FM211400 00000KT 4SM BR FEW070
     FM211500 VRB03KT P6SM FEW080=

USA.gov is the U.S. government's official web portal to all federal, state and local government web resources and services.